Time;durP1;ratioP1;P1;durP2;ratioP2;P2;SDS_P1;SDS_P2;PMS_P1;PMS_P2;Temp;Humidity;BMP_temperature;BMP_pressure;BME280_temperature;BME280_humidity;BME280_pressure;Samples;Min_cycle;Max_cycle;Signal;HPM_P1;HPM_P2
2024/02/05 00:02:04;;;;;;;64.05;31.23;;;9.80;99.90;;;;;;5005390;28;20436;-78
2024/02/05 00:04:31;;;;;;;62.20;29.95;;;9.80;99.90;;;;;;5007201;28;20157;-78
2024/02/05 00:06:58;;;;;;;78.00;38.35;;;9.80;99.90;;;;;;4989460;28;20371;-78
2024/02/05 00:09:25;;;;;;;74.00;32.75;;;9.80;99.90;;;;;;5020589;28;20068;-77
2024/02/05 00:11:52;;;;;;;73.22;32.10;;;9.80;99.90;;;;;;4986142;28;20072;-78
2024/02/05 00:14:18;;;;;;;68.75;31.88;;;9.80;99.90;;;;;;5006008;28;20139;-77
2024/02/05 00:16:46;;;;;;;73.57;33.15;;;9.80;99.90;;;;;;5014427;28;20379;-78
2024/02/05 00:19:13;;;;;;;71.25;31.67;;;9.80;99.90;;;;;;5000442;28;20045;-77
2024/02/05 00:21:40;;;;;;;93.10;41.65;;;9.80;99.90;;;;;;5000576;28;20132;-77
2024/02/05 00:24:07;;;;;;;82.40;36.83;;;9.80;99.90;;;;;;4993997;28;20424;-77
2024/02/05 00:26:34;;;;;;;81.13;35.53;;;9.80;99.90;;;;;;5000022;28;20589;-77
2024/02/05 00:29:01;;;;;;;76.55;35.45;;;9.80;99.90;;;;;;5013863;28;20071;-77
2024/02/05 00:31:27;;;;;;;85.47;37.47;;;9.80;99.90;;;;;;5001207;28;20416;-76
2024/02/05 00:33:54;;;;;;;91.30;39.42;;;9.80;99.90;;;;;;4989585;28;20045;-77
2024/02/05 00:36:21;;;;;;;55.22;27.45;;;9.80;99.90;;;;;;5005268;28;20098;-77
2024/02/05 00:38:48;;;;;;;62.20;28.58;;;9.70;99.90;;;;;;4999156;28;20056;-77
2024/02/05 00:41:15;;;;;;;64.32;31.48;;;9.70;99.90;;;;;;5018793;28;20045;-77
2024/02/05 00:43:41;;;;;;;56.60;28.48;;;9.70;99.90;;;;;;5003725;28;20310;-78
2024/02/05 00:46:08;;;;;;;75.45;33.60;;;9.70;99.90;;;;;;4989629;28;20048;-77
2024/02/05 00:48:35;;;;;;;83.93;35.08;;;9.80;99.90;;;;;;5007815;28;20048;-77
2024/02/05 00:51:02;;;;;;;81.63;33.35;;;9.80;99.90;;;;;;5007662;28;20501;-76
2024/02/05 00:53:29;;;;;;;87.25;36.15;;;9.80;99.90;;;;;;5006623;28;20049;-77
2024/02/05 00:55:56;;;;;;;79.93;34.03;;;9.80;99.90;;;;;;4993286;28;20049;-77
2024/02/05 00:58:22;;;;;;;88.97;35.92;;;9.70;99.90;;;;;;5005913;28;20049;-77
2024/02/05 01:00:49;;;;;;;88.68;39.03;;;9.70;99.90;;;;;;5003368;28;20561;-77
2024/02/05 01:03:17;;;;;;;82.88;36.50;;;9.70;99.90;;;;;;5004881;28;20041;-78
2024/02/05 01:05:43;;;;;;;71.30;34.05;;;9.70;99.90;;;;;;5004056;28;20574;-77
2024/02/05 01:08:11;;;;;;;96.57;37.80;;;9.70;99.90;;;;;;5010885;28;20038;-76
2024/02/05 01:10:37;;;;;;;112.00;42.20;;;9.70;99.90;;;;;;5018489;28;20415;-77
2024/02/05 01:13:04;;;;;;;89.38;37.85;;;9.70;99.90;;;;;;5015301;28;20118;-77
2024/02/05 01:15:31;;;;;;;99.03;38.05;;;9.70;99.90;;;;;;4999696;28;20063;-77
2024/02/05 01:17:58;;;;;;;94.82;38.38;;;9.70;99.90;;;;;;4995241;28;20660;-78
2024/02/05 01:20:25;;;;;;;104.10;38.20;;;9.70;99.90;;;;;;5004858;28;21637;-77
2024/02/05 01:22:52;;;;;;;89.43;41.72;;;9.70;99.90;;;;;;5010408;28;20060;-77
2024/02/05 01:25:18;;;;;;;76.93;36.08;;;9.70;99.90;;;;;;5000312;28;20594;-76
2024/02/05 01:27:45;;;;;;;83.30;40.20;;;9.70;99.90;;;;;;5007791;28;20049;-78
2024/02/05 01:30:13;;;;;;;92.85;42.50;;;9.70;99.90;;;;;;4989363;28;20125;-77
2024/02/05 01:32:41;;;;;;;92.72;43.78;;;9.80;99.90;;;;;;5005767;28;20049;-77
2024/02/05 01:35:08;;;;;;;84.80;41.42;;;9.70;99.90;;;;;;5014942;28;20682;-77
2024/02/05 01:37:35;;;;;;;77.22;34.33;;;9.70;99.90;;;;;;5003310;28;20064;-77
2024/02/05 01:40:09;;;;;;;101.22;44.05;;;9.70;99.90;;;;;;5026647;28;20120;-78
2024/02/05 01:42:38;;;;;;;73.82;37.25;;;9.70;99.90;;;;;;5001782;28;20049;-78
2024/02/05 01:45:05;;;;;;;97.15;43.15;;;9.70;99.90;;;;;;5007154;28;20052;-77
2024/02/05 01:47:36;;;;;;;87.78;39.10;;;9.70;99.90;;;;;;5024649;28;20045;-77
2024/02/05 01:50:10;;;;;;;88.47;40.13;;;9.70;99.90;;;;;;5004391;28;20046;-78
2024/02/05 01:52:44;;;;;;;82.80;37.97;;;9.70;99.90;;;;;;4988299;28;20067;-77
2024/02/05 01:55:13;;;;;;;90.45;40.70;;;9.70;99.90;;;;;;5019669;28;20264;-76
2024/02/05 01:57:41;;;;;;;72.20;34.25;;;9.70;99.90;;;;;;5002313;28;20033;-77
2024/02/05 02:00:10;;;;;;;84.70;39.20;;;9.70;99.90;;;;;;5012666;28;20056;-77
2024/02/05 02:02:40;;;;;;;84.35;40.33;;;9.70;99.90;;;;;;4987351;28;20046;-77
2024/02/05 02:05:08;;;;;;;87.05;42.25;;;9.60;99.90;;;;;;5016274;28;20041;-77
2024/02/05 02:07:35;;;;;;;81.22;37.45;;;9.70;99.90;;;;;;5006172;28;20049;-76
2024/02/05 02:10:03;;;;;;;86.90;40.30;;;9.70;99.90;;;;;;5002715;28;20049;-76
2024/02/05 02:12:30;;;;;;;79.97;39.78;;;9.70;99.90;;;;;;5001838;28;21137;-77
2024/02/05 02:14:57;;;;;;;88.20;41.85;;;9.60;99.90;;;;;;5002480;28;20111;-76
2024/02/05 02:17:28;;;;;;;79.15;36.75;;;9.60;99.90;;;;;;5018376;28;20041;-76
2024/02/05 02:19:55;;;;;;;89.10;40.83;;;9.60;99.90;;;;;;5005670;28;20726;-76
2024/02/05 02:22:28;;;;;;;79.50;36.80;;;9.60;99.90;;;;;;5003856;28;20577;-77
2024/02/05 02:24:55;;;;;;;90.97;42.45;;;9.60;99.90;;;;;;5013505;28;20064;-76
2024/02/05 02:27:22;;;;;;;91.60;38.78;;;9.60;99.90;;;;;;5006784;28;20037;-77
2024/02/05 02:29:49;;;;;;;92.53;42.40;;;9.60;99.90;;;;;;5024157;28;20048;-77
2024/02/05 02:32:28;;;;;;;88.47;38.17;;;9.60;99.90;;;;;;5020137;28;20068;-77
2024/02/05 02:35:01;;;;;;;80.75;34.63;;;9.60;99.90;;;;;;5000062;28;20072;-76
2024/02/05 02:37:35;;;;;;;82.72;37.80;;;9.60;99.90;;;;;;5003304;28;20120;-76
2024/02/05 02:40:09;;;;;;;78.60;36.67;;;9.60;99.90;;;;;;5003181;28;20052;-76
2024/02/05 02:42:41;;;;;;;85.82;38.70;;;9.60;99.90;;;;;;5005713;28;20144;-76
2024/02/05 02:45:10;;;;;;;91.43;41.22;;;9.60;99.90;;;;;;5009741;28;20041;-77
2024/02/05 02:47:37;;;;;;;87.75;38.22;;;9.60;99.90;;;;;;5005659;28;20056;-76
2024/02/05 02:50:04;;;;;;;61.38;30.00;;;9.60;99.90;;;;;;4990277;28;20539;-76
2024/02/05 02:52:31;;;;;;;79.32;38.47;;;9.60;99.90;;;;;;5024051;28;20454;-76
2024/02/05 02:54:57;;;;;;;82.40;37.15;;;9.60;99.90;;;;;;4999963;28;21332;-76
2024/02/05 02:57:25;;;;;;;86.88;37.35;;;9.60;99.90;;;;;;5000371;28;20128;-76
2024/02/05 02:59:53;;;;;;;68.78;28.73;;;9.60;99.90;;;;;;5013000;28;20293;-76
2024/02/05 03:02:20;;;;;;;78.60;33.00;;;9.60;99.90;;;;;;5002577;28;20517;-76
2024/02/05 03:04:46;;;;;;;61.60;31.40;;;9.60;99.90;;;;;;5017147;28;20044;-76
2024/02/05 03:07:13;;;;;;;80.07;34.60;;;9.60;99.90;;;;;;5025216;28;20221;-76
2024/02/05 03:09:40;;;;;;;77.13;33.55;;;9.60;99.90;;;;;;5019084;28;20109;-76
2024/02/05 03:12:07;;;;;;;85.55;35.72;;;9.60;99.90;;;;;;5020774;28;20472;-76
2024/02/05 03:14:33;;;;;;;68.50;30.38;;;9.60;99.90;;;;;;5011664;28;20091;-76
2024/02/05 03:17:02;;;;;;;81.70;36.80;;;9.60;99.90;;;;;;4997025;28;20208;-76
2024/02/05 03:19:29;;;;;;;59.58;29.38;;;9.60;99.90;;;;;;5010780;28;20050;-76
2024/02/05 03:21:57;;;;;;;59.20;30.80;;;9.60;99.90;;;;;;4997409;28;20284;-76
2024/02/05 03:24:24;;;;;;;58.00;32.45;;;9.60;99.90;;;;;;4992906;28;20508;-76
2024/02/05 03:26:50;;;;;;;69.32;33.70;;;9.60;99.90;;;;;;4979441;28;20045;-76
2024/02/05 03:29:17;;;;;;;79.38;32.45;;;9.60;99.90;;;;;;4987939;28;20365;-76
2024/02/05 03:31:44;;;;;;;73.57;32.72;;;9.60;99.90;;;;;;4997887;28;20057;-76
2024/02/05 03:34:11;;;;;;;64.18;29.75;;;9.60;99.90;;;;;;5005394;28;20071;-76
2024/02/05 03:36:38;;;;;;;73.25;33.13;;;9.60;99.90;;;;;;5015724;28;20147;-77
2024/02/05 03:39:05;;;;;;;69.22;32.80;;;9.60;99.90;;;;;;4987228;28;20053;-76
2024/02/05 03:41:32;;;;;;;63.13;28.17;;;9.60;99.90;;;;;;5014592;28;20042;-76
2024/02/05 03:43:59;;;;;;;68.93;32.78;;;9.60;99.90;;;;;;5013007;28;20065;-76
2024/02/05 03:46:26;;;;;;;71.72;33.13;;;9.60;99.90;;;;;;5000145;28;20041;-76
2024/02/05 03:48:54;;;;;;;55.38;29.65;;;9.60;99.90;;;;;;5000739;28;20056;-76
2024/02/05 03:51:22;;;;;;;74.03;34.88;;;9.60;99.90;;;;;;5002155;28;20776;-77
2024/02/05 03:53:49;;;;;;;71.25;33.83;;;9.60;99.90;;;;;;5000336;28;20525;-76
2024/02/05 03:56:16;;;;;;;73.10;34.25;;;9.60;99.90;;;;;;5000450;28;20038;-76
2024/02/05 03:58:43;;;;;;;61.50;33.08;;;9.60;99.90;;;;;;5019776;28;20372;-76
2024/02/05 04:01:10;;;;;;;69.95;30.75;;;9.60;99.90;;;;;;4996482;28;20052;-76
2024/02/05 04:03:36;;;;;;;64.18;28.92;;;9.60;99.90;;;;;;5015676;28;20052;-76
2024/02/05 04:06:04;;;;;;;60.30;29.70;;;9.60;99.90;;;;;;5000021;28;20443;-76
2024/02/05 04:08:31;;;;;;;72.53;32.72;;;9.60;99.90;;;;;;5017722;28;20049;-76
2024/02/05 04:10:58;;;;;;;83.50;35.58;;;9.60;99.90;;;;;;5013560;28;20156;-76
2024/02/05 04:13:25;;;;;;;73.70;31.30;;;9.60;99.90;;;;;;5002105;28;20132;-76
2024/02/05 04:15:52;;;;;;;66.25;35.00;;;9.60;99.90;;;;;;5012597;28;20053;-76
2024/02/05 04:18:19;;;;;;;72.78;32.60;;;9.60;99.90;;;;;;5021926;28;20094;-76
2024/02/05 04:20:45;;;;;;;62.90;30.15;;;9.60;99.90;;;;;;5007270;28;20413;-76
2024/02/05 04:23:12;;;;;;;72.03;34.20;;;9.60;99.90;;;;;;4996708;28;20037;-76
2024/02/05 04:25:39;;;;;;;56.55;26.88;;;9.60;99.90;;;;;;5022417;28;20044;-76
2024/02/05 04:28:06;;;;;;;46.47;24.67;;;9.60;99.90;;;;;;4998897;28;20104;-75
2024/02/05 04:30:37;;;;;;;64.68;27.52;;;9.60;99.90;;;;;;5004015;28;20040;-76
2024/02/05 04:33:04;;;;;;;60.90;27.55;;;9.60;99.90;;;;;;5002935;28;20038;-76
2024/02/05 04:35:34;;;;;;;58.55;26.45;;;9.60;99.90;;;;;;4990013;28;20126;-76
2024/02/05 04:38:01;;;;;;;61.80;30.27;;;9.60;99.90;;;;;;5019256;28;20072;-76
2024/02/05 04:40:28;;;;;;;56.38;29.17;;;9.60;99.90;;;;;;5022279;28;20110;-76
2024/02/05 04:42:55;;;;;;;66.47;26.55;;;9.60;99.90;;;;;;5017428;28;20041;-76
2024/02/05 04:45:21;;;;;;;75.18;29.80;;;9.60;99.90;;;;;;5017784;28;20340;-77
2024/02/05 04:47:48;;;;;;;66.57;29.30;;;9.60;99.90;;;;;;5017589;28;20049;-76
2024/02/05 04:50:16;;;;;;;48.80;23.13;;;9.60;99.90;;;;;;5018974;28;20033;-76
2024/02/05 04:52:43;;;;;;;58.40;27.42;;;9.60;99.90;;;;;;4994764;28;20029;-76
2024/02/05 04:55:09;;;;;;;59.03;28.23;;;9.60;99.90;;;;;;5019330;28;20436;-77
2024/02/05 04:57:36;;;;;;;53.30;27.80;;;9.60;99.90;;;;;;4998602;28;20036;-76
2024/02/05 05:00:04;;;;;;;46.10;22.80;;;9.50;99.90;;;;;;4999569;28;20041;-76
2024/02/05 05:02:31;;;;;;;51.90;24.65;;;9.50;99.90;;;;;;5017980;28;20164;-76
2024/02/05 05:04:57;;;;;;;63.35;27.52;;;9.60;99.90;;;;;;5000339;28;20432;-75
2024/02/05 05:07:24;;;;;;;58.60;24.63;;;9.60;99.90;;;;;;5003413;28;20662;-76
2024/02/05 05:09:52;;;;;;;48.42;22.10;;;9.60;99.90;;;;;;5014322;28;20140;-76
2024/02/05 05:12:19;;;;;;;58.03;26.02;;;9.50;99.90;;;;;;4999552;28;20045;-76
2024/02/05 05:14:45;;;;;;;55.67;27.60;;;9.50;99.90;;;;;;4994577;28;21155;-76
2024/02/05 05:17:12;;;;;;;52.95;27.70;;;9.50;99.90;;;;;;4995818;28;20110;-76
2024/02/05 05:19:39;;;;;;;52.22;24.00;;;9.50;99.90;;;;;;5018177;28;20041;-76
2024/02/05 05:22:05;;;;;;;64.32;27.52;;;9.50;99.90;;;;;;5017667;28;20041;-76
2024/02/05 05:24:32;;;;;;;58.97;25.98;;;9.50;99.90;;;;;;4990470;28;20072;-76
2024/02/05 05:26:59;;;;;;;54.28;28.65;;;9.40;99.90;;;;;;5011354;28;20054;-76
2024/02/05 05:29:26;;;;;;;58.60;27.77;;;9.40;99.90;;;;;;5016900;28;20049;-76
2024/02/05 05:31:53;;;;;;;52.08;24.92;;;9.40;99.90;;;;;;5017016;28;20412;-77
2024/02/05 05:34:20;;;;;;;69.47;32.30;;;9.40;99.90;;;;;;5016805;28;20041;-76
2024/02/05 05:36:46;;;;;;;64.18;29.15;;;9.40;99.90;;;;;;5015024;28;21134;-76
2024/02/05 05:39:13;;;;;;;73.30;30.25;;;9.40;99.90;;;;;;5000422;28;20499;-76
2024/02/05 05:41:40;;;;;;;61.78;28.90;;;9.40;99.90;;;;;;5003795;28;20059;-76
2024/02/05 05:44:08;;;;;;;72.50;33.40;;;9.40;99.90;;;;;;4998795;28;20588;-76
2024/02/05 05:46:35;;;;;;;68.13;30.20;;;9.40;99.90;;;;;;5014716;28;20121;-76
2024/02/05 05:49:02;;;;;;;67.18;32.30;;;9.30;99.90;;;;;;5015583;28;20073;-76
2024/02/05 05:51:29;;;;;;;62.80;31.52;;;9.30;99.90;;;;;;5016191;28;20124;-76
2024/02/05 05:53:56;;;;;;;62.88;33.75;;;9.30;99.90;;;;;;5019104;28;20037;-75
2024/02/05 05:56:23;;;;;;;71.18;34.17;;;9.30;99.90;;;;;;5015732;28;20511;-76
2024/02/05 05:58:52;;;;;;;68.93;31.35;;;9.30;99.90;;;;;;4993258;28;20114;-76
2024/02/05 06:01:19;;;;;;;71.43;31.85;;;9.30;99.90;;;;;;5000922;28;20057;-76
2024/02/05 06:03:46;;;;;;;63.25;28.90;;;9.30;99.90;;;;;;4998363;28;20045;-76
2024/02/05 06:06:13;;;;;;;50.72;23.15;;;9.30;99.90;;;;;;4996357;28;20055;-75
2024/02/05 06:08:40;;;;;;;55.78;23.02;;;9.30;99.90;;;;;;4994875;28;20049;-76
2024/02/05 06:11:06;;;;;;;43.90;20.77;;;9.30;99.90;;;;;;4996881;28;20072;-76
2024/02/05 06:13:33;;;;;;;63.50;23.58;;;9.30;99.90;;;;;;4998527;28;20270;-76
2024/02/05 06:16:00;;;;;;;54.65;23.75;;;9.30;99.90;;;;;;4998258;28;20121;-77
2024/02/05 06:18:27;;;;;;;47.95;23.55;;;9.30;99.90;;;;;;4999020;28;20045;-76
2024/02/05 06:20:54;;;;;;;60.75;26.60;;;9.30;99.90;;;;;;4987947;28;20060;-76
2024/02/05 06:23:21;;;;;;;55.35;25.48;;;9.30;99.90;;;;;;5006711;28;20052;-76
2024/02/05 06:25:48;;;;;;;58.58;28.85;;;9.20;99.90;;;;;;4996736;28;20045;-77
2024/02/05 06:28:15;;;;;;;50.92;27.33;;;9.20;99.90;;;;;;4994893;28;20049;-76
2024/02/05 06:30:47;;;;;;;63.03;30.27;;;9.20;99.90;;;;;;4980087;28;20044;-76
2024/02/05 06:33:14;;;;;;;56.50;24.85;;;9.30;99.90;;;;;;5010777;28;20041;-76
2024/02/05 06:35:41;;;;;;;67.82;30.77;;;9.30;99.90;;;;;;5000000;28;20037;-76
2024/02/05 06:38:08;;;;;;;70.90;33.10;;;9.30;99.90;;;;;;4992858;28;20045;-76
2024/02/05 06:40:34;;;;;;;53.08;27.70;;;9.20;99.90;;;;;;4997390;28;20042;-76
2024/02/05 06:43:01;;;;;;;67.03;31.05;;;9.20;99.90;;;;;;5001903;28;20136;-76
2024/02/05 06:45:28;;;;;;;61.35;28.63;;;9.20;99.90;;;;;;5014708;28;20491;-76
2024/02/05 06:47:57;;;;;;;61.78;31.33;;;9.20;99.90;;;;;;4982508;28;20052;-76
2024/02/05 06:50:24;;;;;;;70.72;32.88;;;9.30;99.90;;;;;;4997600;28;20123;-76
2024/02/05 06:52:50;;;;;;;58.35;28.23;;;9.30;99.90;;;;;;5000229;28;20721;-76
2024/02/05 06:55:18;;;;;;;67.53;29.55;;;9.20;99.90;;;;;;5014610;28;20442;-76
2024/02/05 06:57:45;;;;;;;68.40;29.95;;;9.20;99.90;;;;;;4999834;28;20505;-76
2024/02/05 07:00:12;;;;;;;59.28;28.45;;;9.20;99.90;;;;;;5012027;28;20958;-76
2024/02/05 07:02:39;;;;;;;56.03;25.88;;;9.20;99.90;;;;;;4991772;28;20587;-76
2024/02/05 07:05:07;;;;;;;56.55;27.35;;;9.20;99.90;;;;;;4991716;28;20130;-75
2024/02/05 07:07:34;;;;;;;62.78;29.92;;;9.20;99.90;;;;;;5007283;28;20048;-76
2024/02/05 07:10:02;;;;;;;69.78;29.27;;;9.30;99.90;;;;;;5010291;28;20536;-75
2024/02/05 07:12:29;;;;;;;61.50;30.25;;;9.20;99.90;;;;;;5003414;28;20033;-75
2024/02/05 07:14:55;;;;;;;54.05;27.88;;;9.20;99.90;;;;;;4994252;28;20041;-76
2024/02/05 07:17:38;;;;;;;58.20;29.52;;;9.20;99.90;;;;;;4984715;28;20042;-75
2024/02/05 07:20:06;;;;;;;59.05;28.33;;;9.20;99.90;;;;;;5014329;28;20037;-75
2024/02/05 07:22:33;;;;;;;57.13;30.58;;;9.20;99.90;;;;;;4997244;28;20102;-76
2024/02/05 07:24:59;;;;;;;52.53;26.08;;;9.20;99.90;;;;;;5016040;28;20832;-75
2024/02/05 07:27:27;;;;;;;50.63;26.15;;;9.20;99.90;;;;;;4996732;28;20141;-75
2024/02/05 07:29:54;;;;;;;55.95;28.40;;;9.20;99.90;;;;;;5016713;28;20049;-75
2024/02/05 07:32:21;;;;;;;55.38;26.95;;;9.20;99.90;;;;;;5017414;28;20278;-75
2024/02/05 07:34:48;;;;;;;58.85;29.50;;;9.20;99.90;;;;;;4995282;28;20037;-75
2024/02/05 07:37:15;;;;;;;49.28;22.83;;;9.20;99.90;;;;;;4987478;28;20132;-76
2024/02/05 07:39:42;;;;;;;52.05;25.05;;;9.20;99.90;;;;;;4984571;28;20083;-76
2024/02/05 07:42:09;;;;;;;52.97;27.80;;;9.20;99.90;;;;;;4994152;28;20204;-75
2024/02/05 07:44:36;;;;;;;72.93;28.73;;;9.20;99.90;;;;;;4998947;28;20041;-75
2024/02/05 07:47:02;;;;;;;53.20;25.50;;;9.20;99.90;;;;;;5014599;28;20425;-75
2024/02/05 07:49:29;;;;;;;56.28;24.10;;;9.20;99.90;;;;;;5002946;28;20045;-75
2024/02/05 07:51:56;;;;;;;56.42;25.45;;;9.20;99.90;;;;;;5011841;28;20692;-76
2024/02/05 07:54:27;;;;;;;57.22;25.50;;;9.20;99.90;;;;;;5001793;28;20385;-75
2024/02/05 07:56:56;;;;;;;40.25;18.95;;;9.20;99.90;;;;;;4997184;28;20629;-75
2024/02/05 07:59:23;;;;;;;59.72;26.25;;;9.10;99.90;;;;;;4996897;28;20483;-75
2024/02/05 08:01:50;;;;;;;49.40;22.98;;;9.20;99.90;;;;;;5001451;28;20044;-75
2024/02/05 08:04:17;;;;;;;43.83;23.58;;;9.10;99.90;;;;;;4997861;28;20049;-76
2024/02/05 08:06:44;;;;;;;55.80;25.02;;;9.10;99.90;;;;;;5015987;28;20344;-75
2024/02/05 08:09:10;;;;;;;42.65;22.10;;;9.20;99.90;;;;;;4994266;28;20136;-75
2024/02/05 08:11:37;;;;;;;53.67;24.63;;;9.10;99.90;;;;;;4996012;28;20048;-76
2024/02/05 08:14:06;;;;;;;59.22;24.23;;;9.10;99.90;;;;;;4979634;28;20042;-75
2024/02/05 08:16:33;;;;;;;52.63;24.92;;;9.10;99.90;;;;;;4983656;28;20034;-75
2024/02/05 08:18:59;;;;;;;52.60;22.30;;;9.10;99.90;;;;;;5015330;28;20030;-76
2024/02/05 08:21:26;;;;;;;48.42;24.15;;;9.10;99.90;;;;;;4997097;28;20104;-75
2024/02/05 08:23:53;;;;;;;61.63;25.45;;;9.10;99.90;;;;;;5000823;28;20111;-75
2024/02/05 08:26:20;;;;;;;54.97;25.33;;;9.10;99.90;;;;;;5008175;28;20333;-75
2024/02/05 08:28:47;;;;;;;50.08;26.40;;;9.10;99.90;;;;;;5022260;28;20045;-75
2024/02/05 08:31:15;;;;;;;43.67;24.23;;;9.10;99.90;;;;;;5016478;28;20052;-75
2024/02/05 08:33:42;;;;;;;41.80;24.23;;;9.10;99.90;;;;;;5003104;28;20144;-75
2024/02/05 08:36:09;;;;;;;55.92;24.40;;;9.10;99.90;;;;;;4997887;28;20041;-74
2024/02/05 08:38:36;;;;;;;53.15;25.30;;;9.10;99.90;;;;;;4999867;28;20213;-75
2024/02/05 08:41:03;;;;;;;54.00;27.80;;;9.10;99.90;;;;;;5013140;28;20495;-75
2024/02/05 08:43:30;;;;;;;46.70;26.38;;;9.10;99.90;;;;;;4997349;28;20258;-75
2024/02/05 08:45:56;;;;;;;44.08;26.80;;;9.10;99.90;;;;;;4996181;28;20927;-75
2024/02/05 08:48:23;;;;;;;52.20;26.17;;;9.10;99.90;;;;;;4994966;28;20049;-75
2024/02/05 08:50:50;;;;;;;48.58;25.15;;;9.10;99.90;;;;;;5001322;28;20037;-75
2024/02/05 08:53:17;;;;;;;47.65;23.70;;;9.10;99.90;;;;;;5018998;28;20286;-75
2024/02/05 08:55:45;;;;;;;46.92;23.00;;;9.20;99.90;;;;;;4994240;28;20066;-75
2024/02/05 08:58:11;;;;;;;47.13;21.63;;;9.20;99.90;;;;;;5016105;28;20042;-76
2024/02/05 09:00:38;;;;;;;47.90;24.38;;;9.20;99.90;;;;;;4998713;28;20067;-76
2024/02/05 09:03:05;;;;;;;46.13;20.63;;;9.20;99.90;;;;;;5001961;28;20591;-75
2024/02/05 09:05:36;;;;;;;39.42;22.10;;;9.10;99.90;;;;;;4998786;28;20046;-75
2024/02/05 09:08:12;;;;;;;50.83;25.85;;;9.10;99.90;;;;;;5001212;28;20800;-75
2024/02/05 09:10:39;;;;;;;41.00;21.73;;;9.20;99.90;;;;;;5016518;28;20433;-76
2024/02/05 09:13:06;;;;;;;43.40;21.90;;;9.10;99.90;;;;;;5005031;28;20363;-75
2024/02/05 09:15:33;;;;;;;56.33;23.48;;;9.10;99.90;;;;;;5000623;28;20064;-75
2024/02/05 09:17:59;;;;;;;49.63;22.33;;;9.10;99.90;;;;;;5016887;28;20120;-75
2024/02/05 09:20:27;;;;;;;45.92;22.40;;;9.10;99.90;;;;;;5022887;28;20310;-75
2024/02/05 09:22:54;;;;;;;47.67;21.48;;;9.10;99.90;;;;;;5002303;28;20052;-75
2024/02/05 09:25:20;;;;;;;31.80;19.58;;;9.10;99.90;;;;;;5001082;28;20144;-77
2024/02/05 09:27:47;;;;;;;42.28;22.25;;;9.10;99.90;;;;;;5013143;28;20077;-75
2024/02/05 09:30:14;;;;;;;55.10;23.33;;;9.10;99.90;;;;;;5017169;28;20201;-76
2024/02/05 09:32:41;;;;;;;45.85;21.20;;;9.10;99.90;;;;;;5000869;28;20133;-77
2024/02/05 09:35:08;;;;;;;51.15;22.02;;;9.10;99.90;;;;;;4998948;28;20148;-77
2024/02/05 09:37:35;;;;;;;43.55;21.40;;;9.10;99.90;;;;;;5019721;28;20080;-76
2024/02/05 09:40:02;;;;;;;52.60;20.67;;;9.10;99.90;;;;;;4987135;28;20037;-76
2024/02/05 09:42:29;;;;;;;36.40;21.13;;;9.20;99.90;;;;;;5000363;28;20083;-77
2024/02/05 09:44:56;;;;;;;41.83;21.73;;;9.20;99.90;;;;;;5002248;28;20054;-76
2024/02/05 09:47:25;;;;;;;38.10;22.73;;;9.20;99.90;;;;;;4989374;28;20040;-77
2024/02/05 09:49:54;;;;;;;39.25;22.77;;;9.20;99.90;;;;;;5017052;28;20279;-75
2024/02/05 09:52:26;;;;;;;47.05;23.67;;;9.20;99.90;;;;;;4997068;28;20631;-76
2024/02/05 09:54:54;;;;;;;41.15;24.10;;;9.30;99.90;;;;;;5002493;28;20045;-77
2024/02/05 09:57:24;;;;;;;47.60;22.95;;;9.20;99.90;;;;;;5001175;28;20039;-77
2024/02/05 09:59:51;;;;;;;41.42;23.40;;;9.20;99.90;;;;;;5016790;28;20045;-76
2024/02/05 10:02:19;;;;;;;53.22;23.73;;;9.20;99.90;;;;;;5012154;28;20499;-76
2024/02/05 10:04:48;;;;;;;42.10;21.85;;;9.20;99.90;;;;;;5021110;28;20063;-79
2024/02/05 10:07:16;;;;;;;50.03;23.58;;;9.20;99.90;;;;;;4986228;28;20586;-77
2024/02/05 10:09:45;;;;;;;39.50;20.52;;;9.20;99.90;;;;;;5002020;28;20105;-76
2024/02/05 10:12:13;;;;;;;40.17;21.33;;;9.20;99.90;;;;;;5002330;28;20077;-76
2024/02/05 10:14:43;;;;;;;39.83;22.13;;;9.20;99.90;;;;;;5021976;28;20050;-76
2024/02/05 10:17:10;;;;;;;48.67;21.88;;;9.20;99.90;;;;;;4994898;28;20044;-77
2024/02/05 10:19:38;;;;;;;44.75;23.08;;;9.20;99.90;;;;;;5019421;28;20052;-75
2024/02/05 10:22:05;;;;;;;43.90;24.30;;;9.20;99.90;;;;;;5018337;28;20122;-77
2024/02/05 10:24:34;;;;;;;56.40;23.85;;;9.20;99.90;;;;;;5000256;28;20725;-75
2024/02/05 10:27:01;;;;;;;33.83;20.45;;;9.10;99.90;;;;;;4997249;28;20113;-76
2024/02/05 10:29:27;;;;;;;41.05;21.83;;;9.10;99.90;;;;;;5021147;28;20068;-76
2024/02/05 10:31:58;;;;;;;43.72;23.38;;;9.20;99.90;;;;;;5016128;28;20666;-77
2024/02/05 10:34:25;;;;;;;47.55;22.77;;;9.20;99.90;;;;;;5022619;28;20068;-75
2024/02/05 10:36:52;;;;;;;45.38;24.17;;;9.20;99.90;;;;;;5001979;28;20052;-76
2024/02/05 10:39:24;;;;;;;39.65;23.25;;;9.20;99.90;;;;;;5002025;28;20144;-76
2024/02/05 10:41:55;;;;;;;49.38;25.17;;;9.20;99.90;;;;;;5016088;28;20041;-76
2024/02/05 10:44:22;;;;;;;34.28;22.35;;;9.30;99.90;;;;;;5005863;28;20132;-76
2024/02/05 10:47:06;;;;;;;39.95;22.90;;;9.30;99.90;;;;;;4997299;28;20045;-73
2024/02/05 10:49:33;;;;;;;35.47;23.73;;;9.30;99.90;;;;;;5000171;28;20954;-77
2024/02/05 10:52:03;;;;;;;48.38;24.17;;;9.30;99.90;;;;;;4999990;28;20038;-77
2024/02/05 10:54:32;;;;;;;31.95;21.92;;;9.30;99.90;;;;;;5023529;28;20575;-77
2024/02/05 10:57:00;;;;;;;36.60;23.58;;;9.30;99.90;;;;;;4996437;28;20425;-78
2024/02/05 10:59:27;;;;;;;38.63;22.67;;;9.30;99.90;;;;;;5021111;28;20508;-77
2024/02/05 11:02:00;;;;;;;36.95;23.95;;;9.30;99.90;;;;;;5003357;28;20050;-72
2024/02/05 11:04:30;;;;;;;41.47;21.85;;;9.40;99.90;;;;;;5004166;28;20132;-76
2024/02/05 11:07:00;;;;;;;39.97;22.95;;;9.40;99.90;;;;;;4991940;28;20103;-74
2024/02/05 11:09:29;;;;;;;49.53;23.02;;;9.30;99.90;;;;;;5028034;23;20096;-76
2024/02/05 11:12:01;;;;;;;35.75;21.83;;;9.30;99.90;;;;;;5019645;28;20163;-76
2024/02/05 11:14:33;;;;;;;35.78;23.90;;;9.30;99.90;;;;;;5010975;28;20049;-76
2024/02/05 11:17:01;;;;;;;44.33;25.05;;;9.30;99.90;;;;;;5001960;28;20048;-76
2024/02/05 11:19:30;;;;;;;44.25;26.30;;;9.30;99.90;;;;;;5005246;28;20072;-77
2024/02/05 11:21:59;;;;;;;33.22;22.27;;;9.40;99.90;;;;;;5006288;28;20042;-75
2024/02/05 11:24:31;;;;;;;44.67;24.10;;;9.40;99.90;;;;;;5020007;28;20665;-77
2024/02/05 11:26:59;;;;;;;38.20;25.85;;;9.40;99.90;;;;;;4996750;28;20073;-77
2024/02/05 11:29:32;;;;;;;36.83;23.52;;;9.40;99.90;;;;;;5003637;28;20129;-77
2024/02/05 11:32:00;;;;;;;36.72;22.30;;;9.40;99.90;;;;;;5015493;28;20050;-76
2024/02/05 11:34:34;;;;;;;38.75;21.98;;;9.40;99.90;;;;;;5015378;28;20461;-77
2024/02/05 11:37:27;;;;;;;36.55;22.98;;;9.40;99.90;;;;;;5002799;28;20053;-79
2024/02/05 11:39:56;;;;;;;39.65;23.35;;;9.50;99.90;;;;;;4999119;28;20131;-76
2024/02/05 11:42:23;;;;;;;41.25;23.98;;;9.50;99.90;;;;;;5003885;28;20419;-77
2024/02/05 11:44:52;;;;;;;41.90;24.27;;;9.50;99.90;;;;;;5001832;28;20037;-79
2024/02/05 11:47:21;;;;;;;38.42;24.73;;;9.50;99.90;;;;;;5001850;28;20049;-77
2024/02/05 11:49:48;;;;;;;43.40;24.45;;;9.50;99.90;;;;;;5003236;28;20052;-77
2024/02/05 11:52:16;;;;;;;44.63;26.23;;;9.60;99.90;;;;;;5002267;28;20069;-77
2024/02/05 11:54:44;;;;;;;31.73;21.30;;;9.60;99.90;;;;;;5004950;28;20048;-77
2024/02/05 11:57:11;;;;;;;36.67;24.38;;;9.60;99.90;;;;;;5006054;28;20485;-78
2024/02/05 11:59:38;;;;;;;34.00;23.05;;;9.60;99.90;;;;;;5000402;28;20042;-77
2024/02/05 12:02:06;;;;;;;41.28;23.60;;;9.50;99.90;;;;;;5007360;28;20057;-76
2024/02/05 12:04:32;;;;;;;45.65;23.17;;;9.50;99.90;;;;;;5014051;28;20055;-77
2024/02/05 12:06:59;;;;;;;36.38;24.73;;;9.60;99.90;;;;;;5010580;28;20148;-77
2024/02/05 12:09:26;;;;;;;32.88;21.98;;;9.60;99.90;;;;;;5010512;28;20569;-78
2024/02/05 12:11:54;;;;;;;44.63;23.10;;;9.60;99.90;;;;;;5015345;28;20053;-77
2024/02/05 12:14:20;;;;;;;35.75;21.60;;;9.60;99.90;;;;;;5004332;28;20068;-77
2024/02/05 12:16:47;;;;;;;30.40;20.48;;;9.60;99.90;;;;;;5004953;28;20037;-77
2024/02/05 12:19:23;;;;;;;34.33;23.05;;;9.60;99.90;;;;;;4988302;28;20077;-79
2024/02/05 12:21:50;;;;;;;33.92;21.35;;;9.70;99.90;;;;;;5002680;28;20048;-83
2024/02/05 12:24:17;;;;;;;28.83;21.60;;;9.80;99.90;;;;;;4994539;28;20082;-78
2024/02/05 12:26:45;;;;;;;32.03;22.52;;;9.70;99.90;;;;;;4994288;28;20042;-78
2024/02/05 12:29:22;;;;;;;31.88;22.13;;;9.80;99.90;;;;;;5003593;28;20050;-78
2024/02/05 12:31:51;;;;;;;35.75;23.30;;;9.90;99.90;;;;;;5012508;28;20045;-78
2024/02/05 12:34:19;;;;;;;27.38;21.70;;;9.90;99.90;;;;;;4998024;28;20056;-79
2024/02/05 12:36:47;;;;;;;34.22;22.45;;;10.10;99.90;;;;;;5004910;28;20037;-77
2024/02/05 12:39:14;;;;;;;34.78;23.30;;;10.10;99.90;;;;;;5010803;28;20604;-79